createdAt,value
2023-04-03T00:00:44.273Z,3.90
2023-04-03T00:02:49.462Z,3.90
2023-04-03T00:04:55.019Z,3.90
2023-04-03T00:07:00.537Z,4.00
2023-04-03T00:09:08.650Z,4.00
2023-04-03T00:11:14.844Z,4.00
2023-04-03T00:13:20.354Z,3.90
2023-04-03T00:15:28.340Z,3.90
2023-04-03T00:17:33.502Z,4.00
2023-04-03T00:19:38.930Z,3.90
2023-04-03T00:21:44.023Z,3.90
2023-04-03T00:23:49.646Z,3.90
2023-04-03T00:25:57.174Z,3.90
2023-04-03T00:28:02.489Z,3.90
2023-04-03T00:30:10.113Z,3.90
2023-04-03T00:32:18.140Z,3.90
2023-04-03T00:34:23.814Z,3.90
2023-04-03T00:36:29.082Z,3.90
2023-04-03T00:38:35.299Z,3.90
2023-04-03T00:40:42.982Z,3.90
2023-04-03T00:42:51.995Z,3.80
2023-04-03T00:45:39.316Z,3.80
2023-04-03T00:47:47.425Z,3.80
2023-04-03T00:49:54.662Z,3.80
2023-04-03T00:52:01.485Z,3.80
2023-04-03T00:54:11.829Z,3.80
2023-04-03T00:56:22.886Z,3.70
2023-04-03T00:58:37.586Z,3.70
2023-04-03T01:00:49.003Z,3.60
2023-04-03T01:02:57.523Z,3.60
2023-04-03T01:05:04.032Z,3.60
2023-04-03T01:07:12.860Z,3.50
2023-04-03T01:09:18.305Z,3.50
2023-04-03T01:11:24.611Z,3.50
2023-04-03T01:13:33.743Z,3.50
2023-04-03T01:15:39.160Z,3.40
2023-04-03T01:17:46.845Z,3.40
2023-04-03T01:20:22.117Z,3.40
2023-04-03T01:22:31.901Z,3.30
2023-04-03T01:24:40.226Z,3.30
2023-04-03T01:26:48.269Z,3.40
2023-04-03T01:28:53.372Z,3.40
2023-04-03T01:31:09.204Z,3.20
2023-04-03T01:33:17.592Z,3.20
2023-04-03T01:35:25.980Z,3.20
2023-04-03T01:37:31.112Z,3.10
2023-04-03T01:39:36.418Z,3.10
2023-04-03T01:41:42.068Z,3.00
2023-04-03T01:43:56.091Z,2.90
2023-04-03T01:46:01.540Z,3.00
2023-04-03T01:48:07.163Z,2.90
2023-04-03T01:50:15.279Z,2.80
2023-04-03T01:52:20.690Z,2.80
2023-04-03T01:54:26.195Z,2.70
2023-04-03T01:56:31.767Z,2.70
2023-04-03T01:58:36.946Z,2.60
2023-04-03T02:00:42.381Z,2.70
2023-04-03T02:02:47.841Z,2.70
2023-04-03T02:04:53.166Z,2.60
2023-04-03T02:07:01.648Z,2.60
2023-04-03T02:09:07.149Z,2.50
2023-04-03T02:11:12.457Z,2.40
2023-04-03T02:13:17.521Z,2.40
2023-04-03T02:15:23.834Z,2.40
2023-04-03T02:17:29.555Z,2.40
2023-04-03T02:19:34.818Z,2.40
2023-04-03T02:21:40.249Z,2.40
2023-04-03T02:23:47.988Z,2.30
2023-04-03T02:25:53.078Z,2.20
2023-04-03T02:27:58.180Z,2.20
2023-04-03T02:30:03.324Z,2.20
2023-04-03T02:32:09.597Z,2.20
2023-04-03T02:34:15.309Z,2.10
2023-04-03T02:36:21.494Z,2.10
2023-04-03T02:38:32.200Z,2.00
2023-04-03T02:40:40.006Z,2.00
2023-04-03T02:42:45.301Z,1.90
2023-04-03T02:44:50.906Z,1.90
2023-04-03T02:46:56.668Z,1.80
2023-04-03T02:49:02.827Z,1.80
2023-04-03T02:51:08.993Z,1.80
2023-04-03T02:53:14.133Z,1.70
2023-04-03T02:55:19.720Z,1.70
2023-04-03T02:57:30.881Z,1.70
2023-04-03T02:59:36.262Z,1.70
2023-04-03T03:01:41.707Z,1.70
2023-04-03T03:03:47.268Z,1.70
2023-04-03T03:05:52.592Z,1.70
2023-04-03T03:07:57.775Z,1.70
2023-04-03T03:10:02.875Z,1.70
2023-04-03T03:12:09.035Z,1.60
2023-04-03T03:14:17.009Z,1.60
2023-04-03T03:16:22.093Z,1.70
2023-04-03T03:18:27.988Z,1.60
2023-04-03T03:20:33.081Z,1.50
2023-04-03T03:22:39.031Z,1.50
2023-04-03T03:24:44.444Z,1.60
2023-04-03T03:26:49.557Z,1.60
2023-04-03T03:28:55.213Z,1.60
2023-04-03T03:31:03.933Z,1.50
2023-04-03T03:33:11.053Z,1.50
2023-04-03T03:35:16.428Z,1.50
2023-04-03T03:37:21.543Z,1.50
2023-04-03T03:39:26.798Z,1.50
2023-04-03T03:41:32.329Z,1.50
2023-04-03T03:43:38.412Z,1.50
2023-04-03T03:45:45.925Z,1.50
2023-04-03T03:47:53.653Z,1.50
2023-04-03T03:49:59.312Z,1.50
2023-04-03T03:52:04.419Z,1.50
2023-04-03T03:54:11.266Z,1.40
2023-04-03T03:56:16.882Z,1.40
2023-04-03T03:58:23.894Z,1.40
2023-04-03T04:00:28.976Z,1.40
2023-04-03T04:02:35.963Z,1.40
2023-04-03T04:04:44.254Z,1.30
2023-04-03T04:06:50.571Z,1.30
2023-04-03T04:08:56.185Z,1.20
2023-04-03T04:11:01.630Z,1.20
2023-04-03T04:13:07.781Z,1.20
2023-04-03T04:15:14.972Z,1.20
2023-04-03T04:17:20.195Z,1.20
2023-04-03T04:19:26.494Z,1.00
2023-04-03T04:21:34.220Z,0.90
2023-04-03T04:23:39.299Z,0.90
2023-04-03T04:25:44.520Z,0.80
2023-04-03T04:27:49.667Z,0.80
2023-04-03T04:29:55.027Z,0.70
2023-04-03T04:32:01.360Z,0.80
2023-04-03T04:34:07.711Z,0.70
2023-04-03T04:36:15.856Z,0.70
2023-04-03T04:38:26.237Z,0.70
2023-04-03T04:40:32.924Z,0.80
2023-04-03T04:42:38.469Z,0.90
2023-04-03T04:44:45.425Z,0.90
2023-04-03T04:46:52.236Z,0.90
2023-04-03T04:48:59.509Z,1.00
2023-04-03T04:51:07.731Z,0.90
2023-04-03T04:53:15.183Z,0.90
2023-04-03T04:55:23.819Z,0.90
2023-04-03T04:57:29.935Z,0.90
2023-04-03T04:59:37.730Z,1.00
2023-04-03T05:01:44.830Z,1.10
2023-04-03T05:03:54.804Z,1.10
2023-04-03T05:06:02.096Z,1.10
2023-04-03T05:08:10.282Z,1.10
2023-04-03T05:10:19.424Z,1.10
2023-04-03T05:12:28.363Z,1.00
2023-04-03T05:14:37.973Z,1.10
2023-04-03T05:16:46.113Z,1.00
2023-04-03T05:18:51.839Z,1.20
2023-04-03T05:21:00.134Z,1.20
2023-04-03T05:23:05.844Z,1.10
2023-04-03T05:25:24.841Z,1.10
2023-04-03T05:27:39.700Z,1.20
2023-04-03T05:29:45.599Z,1.10
2023-04-03T05:31:56.638Z,1.10
2023-04-03T05:34:02.312Z,1.00
2023-04-03T05:36:11.008Z,1.20
2023-04-03T05:38:22.124Z,1.10
2023-04-03T05:40:27.741Z,1.10
2023-04-03T05:42:37.952Z,1.10
2023-04-03T05:44:43.975Z,1.10
2023-04-03T05:46:49.412Z,1.20
2023-04-03T05:48:54.744Z,1.20
2023-04-03T05:51:03.673Z,1.20
2023-04-03T05:53:09.504Z,1.20
2023-04-03T05:55:15.040Z,1.30
2023-04-03T05:57:20.704Z,1.20
2023-04-03T05:59:28.722Z,1.10
2023-04-03T06:01:36.497Z,1.20
2023-04-03T06:03:42.319Z,1.20
2023-04-03T06:05:48.746Z,1.10
2023-04-03T06:07:54.035Z,1.10
2023-04-03T06:10:01.457Z,1.10
2023-04-03T06:12:07.533Z,1.10
2023-04-03T06:14:13.983Z,1.20
2023-04-03T06:16:22.356Z,1.20
2023-04-03T06:18:27.912Z,1.20
2023-04-03T06:20:33.926Z,1.10
2023-04-03T06:22:50.371Z,1.20
2023-04-03T06:24:56.544Z,1.30
2023-04-03T06:27:02.838Z,1.30
2023-04-03T06:29:08.354Z,1.30
2023-04-03T06:31:13.676Z,1.30
2023-04-03T06:33:21.727Z,1.30
2023-04-03T06:35:28.140Z,1.40
2023-04-03T06:37:33.966Z,1.40
2023-04-03T06:39:39.075Z,1.50
2023-04-03T06:41:44.260Z,1.40
2023-04-03T06:43:51.104Z,1.50
2023-04-03T06:45:56.919Z,1.40
2023-04-03T06:48:02.796Z,1.50
2023-04-03T06:50:15.170Z,1.50
2023-04-03T06:52:20.398Z,1.60
2023-04-03T06:54:26.327Z,1.60
2023-04-03T06:56:32.475Z,1.70
2023-04-03T06:58:37.871Z,1.70
2023-04-03T07:00:43.094Z,1.60
2023-04-03T07:02:48.267Z,1.60
2023-04-03T07:04:53.599Z,1.70
2023-04-03T07:07:01.554Z,1.70
2023-04-03T07:09:06.930Z,1.80
2023-04-03T07:11:14.086Z,1.80
2023-04-03T07:13:19.555Z,1.70
2023-04-03T07:15:25.938Z,1.70
2023-04-03T07:17:31.461Z,1.60
2023-04-03T07:19:36.950Z,1.60
2023-04-03T07:21:43.088Z,1.60
2023-04-03T07:23:51.524Z,1.70
2023-04-03T07:25:57.904Z,1.60
2023-04-03T07:28:03.261Z,1.70
2023-04-03T07:30:10.618Z,1.70
2023-04-03T07:32:16.091Z,1.50
2023-04-03T07:34:21.449Z,1.60
2023-04-03T07:36:27.514Z,1.80
2023-04-03T07:38:32.971Z,1.80
2023-04-03T07:40:41.809Z,1.70
2023-04-03T07:42:47.039Z,1.80
2023-04-03T07:44:52.859Z,2.00
2023-04-03T07:46:58.686Z,2.10
2023-04-03T07:49:04.116Z,2.10
2023-04-03T07:51:09.929Z,2.00
2023-04-03T07:53:15.363Z,2.10
2023-04-03T07:55:20.974Z,2.20
2023-04-03T07:57:28.796Z,2.20
2023-04-03T07:59:34.954Z,2.30
2023-04-03T08:01:40.533Z,2.10
2023-04-03T08:03:46.119Z,2.20
2023-04-03T08:05:54.854Z,2.20
2023-04-03T08:08:00.192Z,1.90
2023-04-03T08:10:05.740Z,2.10
2023-04-03T08:12:12.560Z,2.20
2023-04-03T08:14:20.218Z,2.20
2023-04-03T08:16:27.980Z,2.20
2023-04-03T08:18:32.959Z,2.30
2023-04-03T08:20:39.794Z,2.40
2023-04-03T08:22:44.897Z,2.40
2023-04-03T08:24:58.561Z,2.40
2023-04-03T08:27:05.085Z,2.10
2023-04-03T08:29:10.207Z,2.20
2023-04-03T08:31:21.758Z,2.30
2023-04-03T08:33:26.891Z,2.20
2023-04-03T08:35:32.665Z,2.30
2023-04-03T08:37:40.235Z,2.70
2023-04-03T08:39:45.656Z,3.00
2023-04-03T08:41:51.475Z,3.20
2023-04-03T08:44:17.532Z,3.40
2023-04-03T08:46:34.268Z,3.40
2023-04-03T08:48:44.457Z,3.60
2023-04-03T08:50:54.391Z,3.70
2023-04-03T08:53:01.801Z,3.50
2023-04-03T08:55:11.546Z,3.40
2023-04-03T08:57:17.320Z,3.50
2023-04-03T08:59:33.271Z,3.60
2023-04-03T09:01:43.957Z,3.70
2023-04-03T09:03:49.160Z,3.80
2023-04-03T09:06:01.229Z,3.90
2023-04-03T09:08:16.773Z,3.60
2023-04-03T09:10:32.432Z,2.90
2023-04-03T09:12:42.503Z,3.10
2023-04-03T09:14:56.140Z,3.30
2023-04-03T09:17:07.479Z,3.30
2023-04-03T09:19:24.474Z,3.60
2023-04-03T09:21:39.515Z,3.70
2023-04-03T09:23:50.511Z,3.80
2023-04-03T09:26:02.070Z,4.10
2023-04-03T09:28:11.263Z,4.10
2023-04-03T09:30:19.568Z,4.20
2023-04-03T09:32:32.382Z,4.40
2023-04-03T09:34:41.051Z,4.30
2023-04-03T09:36:49.586Z,4.40
2023-04-03T09:39:16.165Z,4.50
2023-04-03T09:41:23.506Z,4.30
2023-04-03T09:43:35.620Z,3.90
2023-04-03T09:45:40.967Z,4.00
2023-04-03T09:47:48.779Z,3.90
2023-04-03T09:49:54.133Z,3.90
2023-04-03T09:51:59.599Z,3.70
2023-04-03T09:54:24.751Z,3.70
2023-04-03T09:56:32.916Z,3.70
2023-04-03T09:58:50.442Z,3.80
2023-04-03T10:01:00.289Z,4.00
2023-04-03T10:03:11.602Z,4.00
2023-04-03T10:05:36.290Z,4.10
2023-04-03T10:07:46.530Z,4.00
2023-04-03T10:10:01.194Z,4.00
2023-04-03T10:12:10.423Z,4.10
2023-04-03T10:14:21.473Z,4.20
2023-04-03T10:16:33.844Z,4.30
2023-04-03T10:18:48.946Z,4.50
2023-04-03T10:20:57.494Z,4.40
2023-04-03T10:23:19.023Z,4.30
2023-04-03T10:25:30.537Z,4.30
2023-04-03T10:27:46.677Z,4.10
2023-04-03T10:29:59.410Z,4.30
2023-04-03T10:32:18.350Z,4.40
2023-04-03T10:34:32.791Z,4.50
2023-04-03T10:36:47.817Z,4.40
2023-04-03T10:39:05.526Z,4.70
2023-04-03T10:41:17.797Z,4.80
2023-04-03T10:43:31.475Z,4.80
2023-04-03T10:46:01.116Z,4.80
2023-04-03T10:48:15.066Z,4.40
2023-04-03T10:50:46.960Z,4.30
2023-04-03T10:52:59.529Z,4.30
2023-04-03T10:55:21.090Z,4.50
2023-04-03T10:57:28.586Z,4.90
2023-04-03T10:59:39.379Z,5.00
2023-04-03T11:01:49.164Z,4.80
2023-04-03T11:03:57.712Z,4.90
2023-04-03T11:06:10.728Z,5.40
2023-04-03T11:08:34.414Z,5.30
2023-04-03T11:11:24.480Z,5.30
2023-04-03T11:13:52.428Z,5.30
2023-04-03T11:16:25.955Z,5.50
2023-04-03T11:18:43.589Z,5.50
2023-04-03T11:20:57.634Z,5.10
2023-04-03T11:23:10.138Z,5.00
2023-04-03T11:25:25.086Z,5.20
2023-04-03T11:27:36.120Z,5.30
2023-04-03T11:29:45.239Z,5.30
2023-04-03T11:32:13.134Z,4.90
2023-04-03T11:34:35.577Z,4.90
2023-04-03T11:36:48.430Z,4.90
2023-04-03T11:39:00.737Z,4.80
2023-04-03T11:41:09.554Z,4.80
2023-04-03T11:43:30.427Z,5.00
2023-04-03T11:45:56.382Z,5.30
2023-04-03T11:48:16.651Z,5.60
2023-04-03T11:50:45.953Z,5.70
2023-04-03T11:53:06.680Z,5.40
2023-04-03T11:56:17.164Z,5.80
2023-04-03T11:58:27.452Z,5.90
2023-04-03T12:01:02.519Z,5.90
2023-04-03T12:03:58.163Z,6.30
2023-04-03T12:06:58.670Z,6.40
2023-04-03T12:09:04.977Z,6.20
2023-04-03T12:11:26.538Z,5.90
2023-04-03T12:13:35.192Z,5.80
2023-04-03T12:15:58.665Z,5.60
2023-04-03T12:18:23.762Z,6.10
2023-04-03T12:21:03.149Z,6.10
2023-04-03T12:23:27.411Z,6.00
2023-04-03T12:25:54.090Z,5.90
2023-04-03T12:27:59.216Z,6.40
2023-04-03T12:30:20.528Z,6.10
2023-04-03T12:33:02.058Z,6.30
2023-04-03T12:35:28.278Z,6.40
2023-04-03T12:38:15.379Z,6.30
2023-04-03T12:40:29.551Z,6.70
2023-04-03T12:43:04.201Z,6.80
2023-04-03T12:45:23.518Z,7.40
2023-04-03T12:47:37.296Z,7.80
2023-04-03T12:49:46.701Z,8.10
2023-04-03T12:51:52.373Z,8.40
2023-04-03T12:54:06.461Z,8.90
2023-04-03T12:56:27.948Z,8.80
2023-04-03T12:58:35.013Z,8.50
2023-04-03T13:00:41.138Z,8.50
2023-04-03T13:02:49.317Z,9.00
2023-04-03T13:04:56.080Z,9.00
2023-04-03T13:07:02.504Z,8.30
2023-04-03T13:09:23.177Z,8.30
2023-04-03T13:11:31.236Z,8.20
2023-04-03T13:13:36.912Z,7.90
2023-04-03T13:15:50.243Z,8.40
2023-04-03T13:17:58.554Z,8.50
2023-04-03T13:20:21.652Z,8.70
2023-04-03T13:22:32.874Z,8.20
2023-04-03T13:24:42.927Z,7.60
2023-04-03T13:26:48.072Z,7.80
2023-04-03T13:28:54.314Z,8.10
2023-04-03T13:31:07.283Z,8.40
2023-04-03T13:33:26.792Z,8.60
2023-04-03T13:35:37.218Z,8.90
2023-04-03T13:37:42.552Z,9.50
2023-04-03T13:40:05.263Z,8.30
2023-04-03T13:42:27.648Z,7.80
2023-04-03T13:44:40.636Z,8.80
2023-04-03T13:46:45.972Z,9.20
2023-04-03T13:48:53.948Z,9.00
2023-04-03T13:51:04.996Z,9.70
2023-04-03T13:53:17.692Z,10.20
2023-04-03T13:55:29.795Z,9.90
2023-04-03T13:57:35.034Z,9.00
2023-04-03T13:59:40.601Z,8.90
2023-04-03T14:01:49.678Z,8.90
2023-04-03T14:04:00.883Z,8.60
2023-04-03T14:06:16.503Z,8.50
2023-04-03T14:08:26.718Z,9.40
2023-04-03T14:10:40.830Z,10.10
2023-04-03T14:12:46.396Z,10.00
2023-04-03T14:14:51.721Z,8.90
2023-04-03T14:17:01.016Z,8.40
2023-04-03T14:19:06.708Z,8.40
2023-04-03T14:21:14.316Z,8.20
2023-04-03T14:23:19.567Z,8.90
2023-04-03T14:25:26.901Z,9.00
2023-04-03T14:27:41.346Z,8.80
2023-04-03T14:29:46.548Z,9.80
2023-04-03T14:32:00.373Z,9.50
2023-04-03T14:34:14.753Z,10.30
2023-04-03T14:36:34.045Z,9.90
2023-04-03T14:38:39.190Z,9.70
2023-04-03T14:40:44.273Z,10.70
2023-04-03T14:42:52.260Z,11.00
2023-04-03T14:44:57.507Z,11.10
2023-04-03T14:47:03.596Z,11.00
2023-04-03T14:49:16.143Z,11.10
2023-04-03T14:51:21.412Z,11.40
2023-04-03T14:53:37.924Z,11.50
2023-04-03T14:55:44.940Z,11.10
2023-04-03T14:57:52.773Z,9.30
2023-04-03T15:00:02.237Z,7.90
2023-04-03T15:02:30.881Z,7.60
2023-04-03T15:04:36.642Z,8.60
2023-04-03T15:06:41.845Z,8.80
2023-04-03T15:08:49.065Z,9.20
2023-04-03T15:10:56.790Z,8.90
2023-04-03T15:13:05.208Z,9.10
2023-04-03T15:15:12.309Z,9.70
2023-04-03T15:17:21.367Z,9.30
2023-04-03T15:19:28.087Z,9.00
2023-04-03T15:21:34.079Z,9.60
2023-04-03T15:23:39.295Z,9.80
2023-04-03T15:25:44.589Z,9.70
2023-04-03T15:27:49.734Z,8.90
2023-04-03T15:29:57.740Z,8.00
2023-04-03T15:32:03.251Z,8.30
2023-04-03T15:34:08.491Z,8.10
2023-04-03T15:36:22.956Z,8.90
2023-04-03T15:38:39.309Z,8.90
2023-04-03T15:40:44.809Z,8.80
2023-04-03T15:42:51.784Z,8.40
2023-04-03T15:45:00.901Z,8.20
2023-04-03T15:47:05.962Z,8.60
2023-04-03T15:49:11.182Z,7.90
2023-04-03T15:51:16.815Z,8.00
2023-04-03T15:53:21.988Z,8.30
2023-04-03T15:55:29.793Z,8.50
2023-04-03T16:00:02.617Z,8.50
2023-04-03T16:02:14.265Z,7.90
2023-04-03T16:04:20.673Z,8.30
2023-04-03T16:06:30.465Z,8.40
2023-04-03T16:08:37.676Z,8.50
2023-04-03T16:10:44.366Z,8.40
2023-04-03T16:12:49.854Z,8.60
2023-04-03T16:14:55.536Z,8.00
2023-04-03T16:17:04.047Z,7.90
2023-04-03T16:19:09.692Z,7.60
2023-04-03T16:21:15.217Z,7.40
2023-04-03T16:23:20.672Z,6.80
2023-04-03T16:25:25.968Z,7.30
2023-04-03T16:27:32.048Z,7.80
2023-04-03T16:29:37.405Z,8.20
2023-04-03T16:31:42.639Z,8.40
2023-04-03T16:33:50.824Z,8.70
2023-04-03T16:35:57.992Z,8.80
2023-04-03T16:38:03.013Z,9.00
2023-04-03T16:40:11.027Z,9.10
2023-04-03T16:42:16.741Z,8.80
2023-04-03T16:44:23.586Z,8.40
2023-04-03T16:46:30.276Z,7.90
2023-04-03T16:48:37.339Z,7.10
2023-04-03T16:50:46.389Z,7.00
2023-04-03T16:52:53.540Z,7.10
2023-04-03T16:55:12.435Z,7.70
2023-04-03T16:57:22.203Z,7.90
2023-04-03T16:59:28.961Z,8.10
2023-04-03T17:01:35.604Z,8.10
2023-04-03T17:03:44.453Z,8.20
2023-04-03T17:06:00.517Z,8.00
2023-04-03T17:08:06.760Z,8.20
2023-04-03T17:10:13.875Z,8.20
2023-04-03T17:12:20.319Z,8.00
2023-04-03T17:14:25.435Z,8.00
2023-04-03T17:16:31.530Z,7.70
2023-04-03T17:18:37.367Z,7.30
2023-04-03T17:20:42.634Z,7.40
2023-04-03T17:22:50.713Z,7.40
2023-04-03T17:24:55.908Z,7.20
2023-04-03T17:27:01.550Z,7.10
2023-04-03T17:29:07.010Z,6.90
2023-04-03T17:31:12.482Z,6.80
2023-04-03T17:33:18.049Z,6.30
2023-04-03T17:35:23.135Z,6.40
2023-04-03T17:37:28.994Z,6.40
2023-04-03T17:39:37.080Z,6.20
2023-04-03T17:41:42.298Z,6.00
2023-04-03T17:43:47.614Z,6.00
2023-04-03T17:45:52.846Z,5.80
2023-04-03T17:47:58.237Z,5.90
2023-04-03T17:50:03.535Z,5.90
2023-04-03T17:52:08.698Z,5.80
2023-04-03T17:54:13.823Z,5.80
2023-04-03T17:56:25.153Z,5.60
2023-04-03T17:58:30.823Z,5.60
2023-04-03T18:00:36.262Z,5.70
2023-04-03T18:02:42.490Z,5.70
2023-04-03T18:04:47.553Z,5.70
2023-04-03T18:06:57.822Z,5.60
2023-04-03T18:09:10.308Z,5.50
2023-04-03T18:11:16.053Z,5.50
2023-04-03T18:13:23.979Z,5.30
2023-04-03T18:15:28.853Z,5.30
2023-04-03T18:17:34.462Z,5.30
2023-04-03T18:19:39.792Z,5.30
2023-04-03T18:21:45.933Z,5.20
2023-04-03T18:23:56.221Z,5.00
2023-04-03T18:26:03.196Z,4.90
2023-04-03T18:28:08.984Z,4.70
2023-04-03T18:30:20.528Z,4.90
2023-04-03T18:32:26.357Z,4.60
2023-04-03T18:34:31.957Z,4.70
2023-04-03T18:36:40.340Z,4.70
2023-04-03T18:38:45.710Z,4.60
2023-04-03T18:40:51.015Z,4.60
2023-04-03T18:42:56.591Z,4.60
2023-04-03T18:45:05.037Z,4.50
2023-04-03T18:47:13.027Z,4.40
2023-04-03T18:49:18.376Z,4.60
2023-04-03T18:51:23.611Z,4.50
2023-04-03T18:53:31.952Z,4.50
2023-04-03T18:55:37.553Z,4.60
2023-04-03T18:57:42.616Z,4.50
2023-04-03T18:59:48.270Z,4.50
2023-04-03T19:01:53.718Z,4.60
2023-04-03T19:04:04.036Z,4.60
2023-04-03T19:06:10.801Z,4.50
2023-04-03T19:08:16.817Z,4.50
2023-04-03T19:10:24.089Z,4.60
2023-04-03T19:12:30.997Z,4.50
2023-04-03T19:14:37.016Z,4.30
2023-04-03T19:16:42.139Z,4.40
2023-04-03T19:18:47.515Z,4.30
2023-04-03T19:20:57.732Z,4.30
2023-04-03T19:23:03.133Z,4.40
2023-04-03T19:25:11.300Z,4.20
2023-04-03T19:27:16.382Z,4.20
2023-04-03T19:29:22.252Z,4.30
2023-04-03T19:31:36.921Z,4.30
2023-04-03T19:33:44.264Z,4.40
2023-04-03T19:35:49.828Z,4.30
2023-04-03T19:37:58.098Z,4.30
2023-04-03T19:40:03.898Z,4.20
2023-04-03T19:42:09.866Z,4.30
2023-04-03T19:44:15.728Z,4.20
2023-04-03T19:46:21.512Z,4.20
2023-04-03T19:48:27.731Z,4.30
2023-04-03T19:50:33.177Z,4.30
2023-04-03T19:52:39.616Z,4.30
2023-04-03T19:54:53.069Z,4.30
2023-04-03T19:57:00.778Z,4.20
2023-04-03T19:59:06.011Z,4.30
2023-04-03T20:01:11.730Z,4.10
2023-04-03T20:03:20.234Z,4.10
2023-04-03T20:05:26.828Z,4.00
2023-04-03T20:07:32.893Z,4.10
2023-04-03T20:09:38.740Z,4.00
2023-04-03T20:11:51.481Z,4.10
2023-04-03T20:14:00.775Z,4.00
2023-04-03T20:16:09.885Z,3.90
2023-04-03T20:18:23.742Z,3.90
2023-04-03T20:20:29.156Z,4.00
2023-04-03T20:22:36.056Z,4.00
2023-04-03T20:24:50.102Z,4.10
2023-04-03T20:26:58.016Z,4.10
2023-04-03T20:29:05.642Z,4.10
2023-04-03T20:31:15.513Z,4.00
2023-04-03T20:33:21.837Z,4.00
2023-04-03T20:35:28.628Z,4.00
2023-04-03T20:37:34.189Z,4.00
2023-04-03T20:39:41.274Z,3.90
2023-04-03T20:41:47.499Z,4.00
2023-04-03T20:43:55.189Z,4.00
2023-04-03T20:46:03.252Z,3.90
2023-04-03T20:48:09.497Z,3.80
2023-04-03T20:50:15.061Z,3.90
2023-04-03T20:52:20.638Z,3.80
2023-04-03T20:54:25.857Z,3.90
2023-04-03T20:56:34.555Z,3.80
2023-04-03T20:58:43.534Z,3.70
2023-04-03T21:00:51.585Z,3.90
2023-04-03T21:02:57.370Z,3.90
2023-04-03T21:05:03.563Z,3.90
2023-04-03T21:07:54.640Z,3.80
2023-04-03T21:10:45.039Z,3.90
2023-04-03T21:13:35.283Z,3.90
2023-04-03T21:15:52.570Z,3.70
2023-04-03T21:18:24.171Z,3.60
2023-04-03T21:20:29.405Z,3.70
2023-04-03T21:22:34.552Z,3.60
2023-04-03T21:24:40.391Z,3.50
2023-04-03T21:26:47.026Z,3.50
2023-04-03T21:28:54.447Z,3.50
2023-04-03T21:30:59.853Z,3.30
2023-04-03T21:33:07.772Z,3.40
2023-04-03T21:35:13.011Z,3.40
2023-04-03T21:37:19.480Z,3.40
2023-04-03T21:39:25.066Z,3.40
2023-04-03T21:41:30.240Z,3.40
2023-04-03T21:43:35.511Z,3.40
2023-04-03T21:45:42.110Z,3.40
2023-04-03T21:47:47.974Z,3.40
2023-04-03T21:49:55.818Z,3.40
2023-04-03T21:52:01.272Z,3.40
2023-04-03T21:54:06.933Z,3.30
2023-04-03T21:56:12.393Z,3.40
2023-04-03T21:58:17.516Z,3.40
2023-04-03T22:00:25.287Z,3.50
2023-04-03T22:02:32.841Z,3.50
2023-04-03T22:04:37.998Z,3.40
2023-04-03T22:06:46.084Z,3.30
2023-04-03T22:08:51.623Z,3.40
2023-04-03T22:11:04.135Z,3.40
2023-04-03T22:13:09.586Z,3.50
2023-04-03T22:15:14.677Z,3.50
2023-04-03T22:17:20.015Z,3.40
2023-04-03T22:19:25.480Z,3.30
2023-04-03T22:21:31.099Z,3.30
2023-04-03T22:23:40.232Z,3.20
2023-04-03T22:25:45.315Z,3.20
2023-04-03T22:27:50.769Z,3.30
2023-04-03T22:29:55.909Z,3.10
2023-04-03T22:32:01.146Z,3.00
2023-04-03T22:34:07.148Z,3.00
2023-04-03T22:36:14.716Z,3.00
2023-04-03T22:38:20.616Z,3.10
2023-04-03T22:40:28.258Z,3.10
2023-04-03T22:42:33.921Z,3.10
2023-04-03T22:44:39.012Z,3.10
2023-04-03T22:46:44.106Z,3.10
2023-04-03T22:48:49.639Z,3.10
2023-04-03T22:50:55.062Z,3.20
2023-04-03T22:53:00.682Z,3.10
2023-04-03T22:55:16.425Z,3.10
2023-04-03T22:57:26.625Z,3.20
2023-04-03T22:59:32.475Z,3.10
2023-04-03T23:01:39.377Z,3.00
2023-04-03T23:03:46.555Z,3.10
2023-04-03T23:05:51.880Z,3.10
2023-04-03T23:07:57.334Z,3.10
2023-04-03T23:10:02.713Z,2.90
2023-04-03T23:12:09.923Z,2.90
2023-04-03T23:14:18.128Z,3.00
2023-04-03T23:16:23.204Z,2.90
2023-04-03T23:18:30.026Z,2.90
2023-04-03T23:20:35.167Z,2.80
2023-04-03T23:22:40.565Z,2.90
2023-04-03T23:24:46.380Z,2.90
2023-04-03T23:26:51.375Z,2.80
2023-04-03T23:28:56.802Z,2.80
2023-04-03T23:31:06.890Z,2.80
2023-04-03T23:33:12.421Z,2.90
2023-04-03T23:35:18.219Z,2.90
2023-04-03T23:37:23.288Z,2.80
2023-04-03T23:39:29.158Z,2.80
2023-04-03T23:41:34.452Z,2.90
2023-04-03T23:43:41.883Z,3.00
2023-04-03T23:45:48.004Z,3.00
2023-04-03T23:47:55.743Z,2.90
2023-04-03T23:50:01.246Z,2.90
2023-04-03T23:52:06.382Z,2.90
2023-04-03T23:54:11.925Z,2.80
2023-04-03T23:56:16.934Z,2.80
2023-04-03T23:58:21.968Z,2.80
